sensor_id;sensor_type;location;lat;lon;timestamp;temperature;humidity
25668;DHT22;18003;-33.830;151.202;2023-04-09T00:00:38;18.90;95.80
25668;DHT22;18003;-33.830;151.202;2023-04-09T00:03:08;18.80;95.60
25668;DHT22;18003;-33.830;151.202;2023-04-09T00:05:41;18.80;95.60
25668;DHT22;18003;-33.830;151.202;2023-04-09T00:08:12;18.80;95.90
25668;DHT22;18003;-33.830;151.202;2023-04-09T00:10:42;18.80;95.80
25668;DHT22;18003;-33.830;151.202;2023-04-09T00:13:12;18.90;95.60
25668;DHT22;18003;-33.830;151.202;2023-04-09T00:15:42;18.80;95.60
25668;DHT22;18003;-33.830;151.202;2023-04-09T00:18:13;18.80;95.50
25668;DHT22;18003;-33.830;151.202;2023-04-09T00:20:44;18.80;95.60
25668;DHT22;18003;-33.830;151.202;2023-04-09T00:23:14;18.90;95.80
25668;DHT22;18003;-33.830;151.202;2023-04-09T00:25:44;18.80;95.30
25668;DHT22;18003;-33.830;151.202;2023-04-09T00:28:14;18.80;95.40
25668;DHT22;18003;-33.830;151.202;2023-04-09T00:30:45;18.80;95.20
25668;DHT22;18003;-33.830;151.202;2023-04-09T00:33:14;18.80;95.30
25668;DHT22;18003;-33.830;151.202;2023-04-09T00:35:44;18.80;94.80
25668;DHT22;18003;-33.830;151.202;2023-04-09T00:38:14;18.80;95.00
25668;DHT22;18003;-33.830;151.202;2023-04-09T00:40:48;18.80;95.00
25668;DHT22;18003;-33.830;151.202;2023-04-09T00:43:18;18.80;95.00
25668;DHT22;18003;-33.830;151.202;2023-04-09T00:45:48;18.80;95.30
25668;DHT22;18003;-33.830;151.202;2023-04-09T00:48:19;18.90;95.30
25668;DHT22;18003;-33.830;151.202;2023-04-09T00:50:49;18.80;95.00
25668;DHT22;18003;-33.830;151.202;2023-04-09T00:53:20;18.80;95.00
25668;DHT22;18003;-33.830;151.202;2023-04-09T00:55:51;18.90;95.40
25668;DHT22;18003;-33.830;151.202;2023-04-09T00:58:21;18.90;95.30
25668;DHT22;18003;-33.830;151.202;2023-04-09T01:00:51;18.90;95.00
25668;DHT22;18003;-33.830;151.202;2023-04-09T01:03:21;18.90;94.90
25668;DHT22;18003;-33.830;151.202;2023-04-09T01:08:48;18.90;94.50
25668;DHT22;18003;-33.830;151.202;2023-04-09T01:11:42;18.90;95.30
25668;DHT22;18003;-33.830;151.202;2023-04-09T01:16:59;18.90;95.00
25668;DHT22;18003;-33.830;151.202;2023-04-09T01:22:21;19.00;95.00
25668;DHT22;18003;-33.830;151.202;2023-04-09T01:25:09;18.90;95.00
25668;DHT22;18003;-33.830;151.202;2023-04-09T01:30:34;19.00;95.10
25668;DHT22;18003;-33.830;151.202;2023-04-09T01:33:05;19.00;94.70
25668;DHT22;18003;-33.830;151.202;2023-04-09T01:35:35;18.90;94.30
25668;DHT22;18003;-33.830;151.202;2023-04-09T01:38:06;18.90;94.60
25668;DHT22;18003;-33.830;151.202;2023-04-09T01:40:36;19.00;94.30
25668;DHT22;18003;-33.830;151.202;2023-04-09T01:43:07;19.00;94.40
25668;DHT22;18003;-33.830;151.202;2023-04-09T01:45:37;19.00;94.40
25668;DHT22;18003;-33.830;151.202;2023-04-09T01:48:08;19.00;94.80
25668;DHT22;18003;-33.830;151.202;2023-04-09T01:50:38;19.00;94.60
25668;DHT22;18003;-33.830;151.202;2023-04-09T01:53:08;19.00;94.60
25668;DHT22;18003;-33.830;151.202;2023-04-09T01:55:38;19.10;94.50
25668;DHT22;18003;-33.830;151.202;2023-04-09T01:58:08;19.10;94.30
25668;DHT22;18003;-33.830;151.202;2023-04-09T02:00:44;19.10;94.20
25668;DHT22;18003;-33.830;151.202;2023-04-09T02:03:23;19.10;94.00
25668;DHT22;18003;-33.830;151.202;2023-04-09T02:06:08;19.10;94.50
25668;DHT22;18003;-33.830;151.202;2023-04-09T02:08:38;19.10;93.90
25668;DHT22;18003;-33.830;151.202;2023-04-09T02:11:10;19.10;93.50
25668;DHT22;18003;-33.830;151.202;2023-04-09T02:13:40;19.10;94.10
25668;DHT22;18003;-33.830;151.202;2023-04-09T02:16:11;19.20;94.30
25668;DHT22;18003;-33.830;151.202;2023-04-09T02:18:42;19.20;94.50
25668;DHT22;18003;-33.830;151.202;2023-04-09T02:21:12;19.20;93.60
25668;DHT22;18003;-33.830;151.202;2023-04-09T02:23:42;19.20;92.90
25668;DHT22;18003;-33.830;151.202;2023-04-09T02:26:12;19.10;93.00
25668;DHT22;18003;-33.830;151.202;2023-04-09T02:28:43;19.10;93.00
25668;DHT22;18003;-33.830;151.202;2023-04-09T02:31:12;19.10;93.30
25668;DHT22;18003;-33.830;151.202;2023-04-09T02:33:43;19.10;92.90
25668;DHT22;18003;-33.830;151.202;2023-04-09T02:36:13;19.20;93.30
25668;DHT22;18003;-33.830;151.202;2023-04-09T02:38:43;19.20;93.50
25668;DHT22;18003;-33.830;151.202;2023-04-09T02:41:13;19.20;93.00
25668;DHT22;18003;-33.830;151.202;2023-04-09T02:43:42;19.20;93.10
25668;DHT22;18003;-33.830;151.202;2023-04-09T02:46:13;19.20;93.40
25668;DHT22;18003;-33.830;151.202;2023-04-09T02:48:43;19.20;93.10
25668;DHT22;18003;-33.830;151.202;2023-04-09T02:51:13;19.20;93.20
25668;DHT22;18003;-33.830;151.202;2023-04-09T02:53:43;19.20;93.30
25668;DHT22;18003;-33.830;151.202;2023-04-09T02:56:13;19.20;93.40
25668;DHT22;18003;-33.830;151.202;2023-04-09T02:58:43;19.20;93.30
25668;DHT22;18003;-33.830;151.202;2023-04-09T03:01:13;19.20;93.60
25668;DHT22;18003;-33.830;151.202;2023-04-09T03:03:43;19.30;93.70
25668;DHT22;18003;-33.830;151.202;2023-04-09T03:06:13;19.30;93.00
25668;DHT22;18003;-33.830;151.202;2023-04-09T03:08:44;19.30;93.40
25668;DHT22;18003;-33.830;151.202;2023-04-09T03:11:14;19.30;93.10
25668;DHT22;18003;-33.830;151.202;2023-04-09T03:13:44;19.30;92.90
25668;DHT22;18003;-33.830;151.202;2023-04-09T03:16:14;19.30;92.90
25668;DHT22;18003;-33.830;151.202;2023-04-09T03:18:44;19.30;93.10
25668;DHT22;18003;-33.830;151.202;2023-04-09T03:21:14;19.30;92.80
25668;DHT22;18003;-33.830;151.202;2023-04-09T03:23:44;19.30;92.20
25668;DHT22;18003;-33.830;151.202;2023-04-09T03:26:14;19.30;92.50
25668;DHT22;18003;-33.830;151.202;2023-04-09T03:28:44;19.30;92.80
25668;DHT22;18003;-33.830;151.202;2023-04-09T03:31:14;19.30;92.10
25668;DHT22;18003;-33.830;151.202;2023-04-09T03:33:44;19.30;92.20
25668;DHT22;18003;-33.830;151.202;2023-04-09T03:36:14;19.30;92.40
25668;DHT22;18003;-33.830;151.202;2023-04-09T03:38:44;19.30;92.40
25668;DHT22;18003;-33.830;151.202;2023-04-09T03:41:14;19.30;91.90
25668;DHT22;18003;-33.830;151.202;2023-04-09T03:43:45;19.30;91.90
25668;DHT22;18003;-33.830;151.202;2023-04-09T03:46:18;19.30;92.20
25668;DHT22;18003;-33.830;151.202;2023-04-09T03:48:48;19.30;92.30
25668;DHT22;18003;-33.830;151.202;2023-04-09T03:51:18;19.40;92.10
25668;DHT22;18003;-33.830;151.202;2023-04-09T03:53:48;19.30;92.30
25668;DHT22;18003;-33.830;151.202;2023-04-09T03:56:18;19.30;92.00
25668;DHT22;18003;-33.830;151.202;2023-04-09T03:58:49;19.40;92.20
25668;DHT22;18003;-33.830;151.202;2023-04-09T04:01:19;19.40;92.10
25668;DHT22;18003;-33.830;151.202;2023-04-09T04:03:49;19.30;92.20
25668;DHT22;18003;-33.830;151.202;2023-04-09T04:06:19;19.30;91.70
25668;DHT22;18003;-33.830;151.202;2023-04-09T04:08:50;19.30;91.70
25668;DHT22;18003;-33.830;151.202;2023-04-09T04:11:21;19.40;91.90
25668;DHT22;18003;-33.830;151.202;2023-04-09T04:13:51;19.40;91.90
25668;DHT22;18003;-33.830;151.202;2023-04-09T04:16:22;19.40;91.70
25668;DHT22;18003;-33.830;151.202;2023-04-09T04:18:53;19.40;91.70
25668;DHT22;18003;-33.830;151.202;2023-04-09T04:21:23;19.40;91.70
25668;DHT22;18003;-33.830;151.202;2023-04-09T04:23:53;19.40;92.00
25668;DHT22;18003;-33.830;151.202;2023-04-09T04:26:22;19.40;92.20
25668;DHT22;18003;-33.830;151.202;2023-04-09T04:28:53;19.40;92.00
25668;DHT22;18003;-33.830;151.202;2023-04-09T04:31:22;19.40;92.10
25668;DHT22;18003;-33.830;151.202;2023-04-09T04:33:52;19.50;92.20
25668;DHT22;18003;-33.830;151.202;2023-04-09T04:36:22;19.40;92.30
25668;DHT22;18003;-33.830;151.202;2023-04-09T04:38:53;19.40;91.60
25668;DHT22;18003;-33.830;151.202;2023-04-09T04:41:23;19.40;91.40
25668;DHT22;18003;-33.830;151.202;2023-04-09T04:43:53;19.50;91.00
25668;DHT22;18003;-33.830;151.202;2023-04-09T04:46:24;19.40;91.20
25668;DHT22;18003;-33.830;151.202;2023-04-09T04:48:54;19.40;90.90
25668;DHT22;18003;-33.830;151.202;2023-04-09T04:51:24;19.40;91.20
25668;DHT22;18003;-33.830;151.202;2023-04-09T04:53:54;19.40;91.00
25668;DHT22;18003;-33.830;151.202;2023-04-09T04:56:24;19.40;91.40
25668;DHT22;18003;-33.830;151.202;2023-04-09T04:58:54;19.40;91.40
25668;DHT22;18003;-33.830;151.202;2023-04-09T05:01:24;19.40;91.80
25668;DHT22;18003;-33.830;151.202;2023-04-09T05:03:55;19.40;91.50
25668;DHT22;18003;-33.830;151.202;2023-04-09T05:06:25;19.40;91.60
25668;DHT22;18003;-33.830;151.202;2023-04-09T05:08:55;19.40;91.70
25668;DHT22;18003;-33.830;151.202;2023-04-09T05:11:25;19.40;91.70
25668;DHT22;18003;-33.830;151.202;2023-04-09T05:13:56;19.40;91.70
25668;DHT22;18003;-33.830;151.202;2023-04-09T05:16:26;19.40;91.20
25668;DHT22;18003;-33.830;151.202;2023-04-09T05:18:56;19.40;91.40
25668;DHT22;18003;-33.830;151.202;2023-04-09T05:21:26;19.40;91.60
25668;DHT22;18003;-33.830;151.202;2023-04-09T05:23:56;19.40;91.80
25668;DHT22;18003;-33.830;151.202;2023-04-09T05:26:26;19.40;91.80
25668;DHT22;18003;-33.830;151.202;2023-04-09T05:28:57;19.30;91.70
25668;DHT22;18003;-33.830;151.202;2023-04-09T05:31:27;19.40;92.00
25668;DHT22;18003;-33.830;151.202;2023-04-09T05:33:57;19.30;91.70
25668;DHT22;18003;-33.830;151.202;2023-04-09T05:36:27;19.40;91.90
25668;DHT22;18003;-33.830;151.202;2023-04-09T05:38:57;19.50;91.90
25668;DHT22;18003;-33.830;151.202;2023-04-09T05:41:27;19.50;91.60
25668;DHT22;18003;-33.830;151.202;2023-04-09T05:43:57;19.50;91.60
25668;DHT22;18003;-33.830;151.202;2023-04-09T05:46:27;19.60;91.70
25668;DHT22;18003;-33.830;151.202;2023-04-09T05:48:57;19.50;91.30
25668;DHT22;18003;-33.830;151.202;2023-04-09T05:51:27;19.50;91.30
25668;DHT22;18003;-33.830;151.202;2023-04-09T05:53:57;19.60;91.50
25668;DHT22;18003;-33.830;151.202;2023-04-09T05:56:27;19.50;91.00
25668;DHT22;18003;-33.830;151.202;2023-04-09T05:58:57;19.60;91.30
25668;DHT22;18003;-33.830;151.202;2023-04-09T06:01:27;19.60;91.60
25668;DHT22;18003;-33.830;151.202;2023-04-09T06:03:57;19.60;91.30
25668;DHT22;18003;-33.830;151.202;2023-04-09T06:06:27;19.60;91.40
25668;DHT22;18003;-33.830;151.202;2023-04-09T06:08:57;19.70;91.70
25668;DHT22;18003;-33.830;151.202;2023-04-09T06:11:27;19.70;91.60
25668;DHT22;18003;-33.830;151.202;2023-04-09T06:13:57;19.70;91.50
25668;DHT22;18003;-33.830;151.202;2023-04-09T06:16:27;19.70;91.70
25668;DHT22;18003;-33.830;151.202;2023-04-09T06:18:57;19.70;91.00
25668;DHT22;18003;-33.830;151.202;2023-04-09T06:21:27;19.70;91.20
25668;DHT22;18003;-33.830;151.202;2023-04-09T06:23:58;19.70;91.20
25668;DHT22;18003;-33.830;151.202;2023-04-09T06:26:28;19.70;91.00
25668;DHT22;18003;-33.830;151.202;2023-04-09T06:28:58;19.70;91.10
25668;DHT22;18003;-33.830;151.202;2023-04-09T06:31:28;19.60;91.60
25668;DHT22;18003;-33.830;151.202;2023-04-09T06:33:58;19.60;90.50
25668;DHT22;18003;-33.830;151.202;2023-04-09T06:36:28;19.60;91.20
25668;DHT22;18003;-33.830;151.202;2023-04-09T06:38:58;19.60;91.20
25668;DHT22;18003;-33.830;151.202;2023-04-09T06:41:28;19.60;90.60
25668;DHT22;18003;-33.830;151.202;2023-04-09T06:43:59;19.60;90.70
25668;DHT22;18003;-33.830;151.202;2023-04-09T06:46:29;19.60;91.20
25668;DHT22;18003;-33.830;151.202;2023-04-09T06:48:59;19.60;91.20
25668;DHT22;18003;-33.830;151.202;2023-04-09T06:51:29;19.60;91.00
25668;DHT22;18003;-33.830;151.202;2023-04-09T06:53:59;19.60;91.50
25668;DHT22;18003;-33.830;151.202;2023-04-09T06:56:29;19.60;91.50
25668;DHT22;18003;-33.830;151.202;2023-04-09T06:58:59;19.60;91.30
25668;DHT22;18003;-33.830;151.202;2023-04-09T07:01:29;19.60;91.60
25668;DHT22;18003;-33.830;151.202;2023-04-09T07:03:59;19.60;91.10
25668;DHT22;18003;-33.830;151.202;2023-04-09T07:06:29;19.60;91.10
25668;DHT22;18003;-33.830;151.202;2023-04-09T07:08:59;19.60;91.20
25668;DHT22;18003;-33.830;151.202;2023-04-09T07:11:29;19.50;91.60
25668;DHT22;18003;-33.830;151.202;2023-04-09T07:13:59;19.60;91.20
25668;DHT22;18003;-33.830;151.202;2023-04-09T07:16:29;19.50;91.10
25668;DHT22;18003;-33.830;151.202;2023-04-09T07:19:00;19.60;91.60
25668;DHT22;18003;-33.830;151.202;2023-04-09T07:21:30;19.50;91.80
25668;DHT22;18003;-33.830;151.202;2023-04-09T07:24:00;19.60;91.20
25668;DHT22;18003;-33.830;151.202;2023-04-09T07:26:30;19.50;91.00
25668;DHT22;18003;-33.830;151.202;2023-04-09T07:29:00;19.60;91.50
25668;DHT22;18003;-33.830;151.202;2023-04-09T07:31:31;19.50;91.30
25668;DHT22;18003;-33.830;151.202;2023-04-09T07:34:01;19.50;91.40
25668;DHT22;18003;-33.830;151.202;2023-04-09T07:36:31;19.50;90.80
25668;DHT22;18003;-33.830;151.202;2023-04-09T07:39:01;19.50;91.20
25668;DHT22;18003;-33.830;151.202;2023-04-09T07:41:31;19.50;91.00
25668;DHT22;18003;-33.830;151.202;2023-04-09T07:44:01;19.50;90.80
25668;DHT22;18003;-33.830;151.202;2023-04-09T07:46:31;19.50;91.40
25668;DHT22;18003;-33.830;151.202;2023-04-09T07:49:01;19.50;91.20
25668;DHT22;18003;-33.830;151.202;2023-04-09T07:51:31;19.50;91.70
25668;DHT22;18003;-33.830;151.202;2023-04-09T07:54:01;19.50;91.60
25668;DHT22;18003;-33.830;151.202;2023-04-09T07:56:32;19.50;91.40
25668;DHT22;18003;-33.830;151.202;2023-04-09T07:59:02;19.60;92.10
25668;DHT22;18003;-33.830;151.202;2023-04-09T08:01:32;19.50;92.50
25668;DHT22;18003;-33.830;151.202;2023-04-09T08:04:03;19.50;91.80
25668;DHT22;18003;-33.830;151.202;2023-04-09T08:06:33;19.50;92.10
25668;DHT22;18003;-33.830;151.202;2023-04-09T08:09:03;19.50;91.80
25668;DHT22;18003;-33.830;151.202;2023-04-09T08:11:33;19.50;92.20
25668;DHT22;18003;-33.830;151.202;2023-04-09T08:14:03;19.50;92.10
25668;DHT22;18003;-33.830;151.202;2023-04-09T08:16:34;19.50;91.30
25668;DHT22;18003;-33.830;151.202;2023-04-09T08:19:04;19.50;92.00
25668;DHT22;18003;-33.830;151.202;2023-04-09T08:21:38;19.50;92.00
25668;DHT22;18003;-33.830;151.202;2023-04-09T08:24:09;19.50;92.10
25668;DHT22;18003;-33.830;151.202;2023-04-09T08:26:40;19.50;92.20
25668;DHT22;18003;-33.830;151.202;2023-04-09T08:29:10;19.50;91.90
25668;DHT22;18003;-33.830;151.202;2023-04-09T08:31:41;19.50;91.90
25668;DHT22;18003;-33.830;151.202;2023-04-09T08:34:11;19.50;92.30
25668;DHT22;18003;-33.830;151.202;2023-04-09T08:36:45;19.50;92.40
25668;DHT22;18003;-33.830;151.202;2023-04-09T08:39:16;19.50;92.40
25668;DHT22;18003;-33.830;151.202;2023-04-09T08:41:47;19.50;92.40
25668;DHT22;18003;-33.830;151.202;2023-04-09T08:44:18;19.50;92.70
25668;DHT22;18003;-33.830;151.202;2023-04-09T08:46:49;19.50;92.40
25668;DHT22;18003;-33.830;151.202;2023-04-09T08:49:19;19.40;92.00
25668;DHT22;18003;-33.830;151.202;2023-04-09T08:51:49;19.50;92.60
25668;DHT22;18003;-33.830;151.202;2023-04-09T08:54:19;19.50;92.30
25668;DHT22;18003;-33.830;151.202;2023-04-09T08:56:50;19.50;92.70
25668;DHT22;18003;-33.830;151.202;2023-04-09T08:59:20;19.50;92.70
25668;DHT22;18003;-33.830;151.202;2023-04-09T09:02:05;19.50;92.60
25668;DHT22;18003;-33.830;151.202;2023-04-09T09:04:22;19.50;93.00
25668;DHT22;18003;-33.830;151.202;2023-04-09T09:06:52;19.50;93.10
25668;DHT22;18003;-33.830;151.202;2023-04-09T09:09:22;19.40;93.30
25668;DHT22;18003;-33.830;151.202;2023-04-09T09:11:53;19.50;92.90
25668;DHT22;18003;-33.830;151.202;2023-04-09T09:14:24;19.40;93.20
25668;DHT22;18003;-33.830;151.202;2023-04-09T09:19:31;19.50;92.60
25668;DHT22;18003;-33.830;151.202;2023-04-09T09:22:03;19.50;93.20
25668;DHT22;18003;-33.830;151.202;2023-04-09T09:24:35;19.40;93.60
25668;DHT22;18003;-33.830;151.202;2023-04-09T09:27:05;19.40;93.30
25668;DHT22;18003;-33.830;151.202;2023-04-09T09:29:36;19.40;93.20
25668;DHT22;18003;-33.830;151.202;2023-04-09T09:32:11;19.40;93.60
25668;DHT22;18003;-33.830;151.202;2023-04-09T09:34:39;19.40;93.30
25668;DHT22;18003;-33.830;151.202;2023-04-09T09:37:43;19.40;93.70
25668;DHT22;18003;-33.830;151.202;2023-04-09T09:39:47;19.40;93.40
25668;DHT22;18003;-33.830;151.202;2023-04-09T09:42:17;19.40;93.70
25668;DHT22;18003;-33.830;151.202;2023-04-09T09:44:48;19.40;93.70
25668;DHT22;18003;-33.830;151.202;2023-04-09T09:47:21;19.40;94.10
25668;DHT22;18003;-33.830;151.202;2023-04-09T09:49:52;19.40;93.30
25668;DHT22;18003;-33.830;151.202;2023-04-09T09:52:23;19.40;93.40
25668;DHT22;18003;-33.830;151.202;2023-04-09T09:54:52;19.40;94.00
25668;DHT22;18003;-33.830;151.202;2023-04-09T09:57:24;19.40;93.70
25668;DHT22;18003;-33.830;151.202;2023-04-09T10:00:03;19.40;93.50
25668;DHT22;18003;-33.830;151.202;2023-04-09T10:02:31;19.40;94.00
25668;DHT22;18003;-33.830;151.202;2023-04-09T10:05:01;19.40;93.60
25668;DHT22;18003;-33.830;151.202;2023-04-09T10:07:32;19.40;94.20
25668;DHT22;18003;-33.830;151.202;2023-04-09T10:10:04;19.40;94.00
25668;DHT22;18003;-33.830;151.202;2023-04-09T10:12:35;19.30;94.60
25668;DHT22;18003;-33.830;151.202;2023-04-09T10:15:06;19.30;94.30
25668;DHT22;18003;-33.830;151.202;2023-04-09T10:17:37;19.30;94.40
25668;DHT22;18003;-33.830;151.202;2023-04-09T10:20:27;19.40;94.40
25668;DHT22;18003;-33.830;151.202;2023-04-09T10:22:57;19.30;94.50
25668;DHT22;18003;-33.830;151.202;2023-04-09T10:25:29;19.30;94.60
25668;DHT22;18003;-33.830;151.202;2023-04-09T10:28:04;19.30;95.00
25668;DHT22;18003;-33.830;151.202;2023-04-09T10:30:34;19.30;94.90
25668;DHT22;18003;-33.830;151.202;2023-04-09T10:33:15;19.30;95.00
25668;DHT22;18003;-33.830;151.202;2023-04-09T10:35:47;19.30;94.90
25668;DHT22;18003;-33.830;151.202;2023-04-09T10:38:20;19.20;94.80
25668;DHT22;18003;-33.830;151.202;2023-04-09T10:40:49;19.20;94.80
25668;DHT22;18003;-33.830;151.202;2023-04-09T10:43:19;19.20;95.40
25668;DHT22;18003;-33.830;151.202;2023-04-09T10:45:50;19.20;95.10
25668;DHT22;18003;-33.830;151.202;2023-04-09T10:48:21;19.20;94.80
25668;DHT22;18003;-33.830;151.202;2023-04-09T10:50:53;19.20;94.80
25668;DHT22;18003;-33.830;151.202;2023-04-09T10:53:24;19.20;95.00
25668;DHT22;18003;-33.830;151.202;2023-04-09T10:55:55;19.20;94.60
25668;DHT22;18003;-33.830;151.202;2023-04-09T10:58:25;19.20;94.80
25668;DHT22;18003;-33.830;151.202;2023-04-09T11:00:55;19.20;94.60
25668;DHT22;18003;-33.830;151.202;2023-04-09T11:03:29;19.20;95.00
25668;DHT22;18003;-33.830;151.202;2023-04-09T11:06:05;19.20;95.00
25668;DHT22;18003;-33.830;151.202;2023-04-09T11:08:36;19.20;94.60
25668;DHT22;18003;-33.830;151.202;2023-04-09T11:11:06;19.20;94.90
25668;DHT22;18003;-33.830;151.202;2023-04-09T11:13:36;19.20;95.10
25668;DHT22;18003;-33.830;151.202;2023-04-09T11:16:06;19.20;94.80
25668;DHT22;18003;-33.830;151.202;2023-04-09T11:18:36;19.10;94.90
25668;DHT22;18003;-33.830;151.202;2023-04-09T11:21:08;19.20;94.90
25668;DHT22;18003;-33.830;151.202;2023-04-09T11:23:38;19.10;94.80
25668;DHT22;18003;-33.830;151.202;2023-04-09T11:26:09;19.10;94.90
25668;DHT22;18003;-33.830;151.202;2023-04-09T11:28:41;19.10;94.90
25668;DHT22;18003;-33.830;151.202;2023-04-09T11:31:12;19.10;94.90
25668;DHT22;18003;-33.830;151.202;2023-04-09T11:33:44;19.10;94.90
25668;DHT22;18003;-33.830;151.202;2023-04-09T11:36:14;19.10;94.60
25668;DHT22;18003;-33.830;151.202;2023-04-09T11:38:44;19.10;94.80
25668;DHT22;18003;-33.830;151.202;2023-04-09T11:41:16;19.10;94.70
25668;DHT22;18003;-33.830;151.202;2023-04-09T11:43:46;19.10;94.70
25668;DHT22;18003;-33.830;151.202;2023-04-09T11:46:18;19.10;95.10
25668;DHT22;18003;-33.830;151.202;2023-04-09T11:48:49;19.00;94.90
25668;DHT22;18003;-33.830;151.202;2023-04-09T11:51:20;19.10;95.10
25668;DHT22;18003;-33.830;151.202;2023-04-09T11:53:50;19.10;95.00
25668;DHT22;18003;-33.830;151.202;2023-04-09T11:56:20;19.00;94.90
25668;DHT22;18003;-33.830;151.202;2023-04-09T11:58:50;19.10;95.00
25668;DHT22;18003;-33.830;151.202;2023-04-09T12:01:21;19.00;95.10
25668;DHT22;18003;-33.830;151.202;2023-04-09T12:03:54;19.00;94.90
25668;DHT22;18003;-33.830;151.202;2023-04-09T12:06:24;19.00;94.80
25668;DHT22;18003;-33.830;151.202;2023-04-09T12:08:56;19.00;95.10
25668;DHT22;18003;-33.830;151.202;2023-04-09T12:11:30;19.00;95.00
25668;DHT22;18003;-33.830;151.202;2023-04-09T12:14:04;19.00;94.80
25668;DHT22;18003;-33.830;151.202;2023-04-09T12:16:32;19.00;95.20
25668;DHT22;18003;-33.830;151.202;2023-04-09T12:19:09;18.90;94.80
25668;DHT22;18003;-33.830;151.202;2023-04-09T12:21:49;18.90;94.80
25668;DHT22;18003;-33.830;151.202;2023-04-09T12:24:24;19.00;95.10
25668;DHT22;18003;-33.830;151.202;2023-04-09T12:26:55;19.00;95.10
25668;DHT22;18003;-33.830;151.202;2023-04-09T12:29:25;18.90;94.90
25668;DHT22;18003;-33.830;151.202;2023-04-09T12:31:57;18.90;95.10
25668;DHT22;18003;-33.830;151.202;2023-04-09T12:34:27;18.90;95.10
25668;DHT22;18003;-33.830;151.202;2023-04-09T12:36:57;18.90;95.20
25668;DHT22;18003;-33.830;151.202;2023-04-09T12:39:27;18.90;95.00
25668;DHT22;18003;-33.830;151.202;2023-04-09T12:41:57;18.90;94.90
25668;DHT22;18003;-33.830;151.202;2023-04-09T12:44:27;18.90;95.30
25668;DHT22;18003;-33.830;151.202;2023-04-09T12:46:57;18.90;95.20
25668;DHT22;18003;-33.830;151.202;2023-04-09T12:49:27;18.80;95.00
25668;DHT22;18003;-33.830;151.202;2023-04-09T12:51:57;18.80;95.00
25668;DHT22;18003;-33.830;151.202;2023-04-09T12:54:27;18.80;95.10
25668;DHT22;18003;-33.830;151.202;2023-04-09T12:56:57;18.80;95.00
25668;DHT22;18003;-33.830;151.202;2023-04-09T12:59:27;18.80;95.10
25668;DHT22;18003;-33.830;151.202;2023-04-09T13:01:59;18.80;95.20
25668;DHT22;18003;-33.830;151.202;2023-04-09T13:04:29;18.80;95.30
25668;DHT22;18003;-33.830;151.202;2023-04-09T13:06:59;18.80;95.20
25668;DHT22;18003;-33.830;151.202;2023-04-09T13:09:29;18.80;95.30
25668;DHT22;18003;-33.830;151.202;2023-04-09T13:11:59;18.70;95.50
25668;DHT22;18003;-33.830;151.202;2023-04-09T13:14:29;18.70;95.40
25668;DHT22;18003;-33.830;151.202;2023-04-09T13:16:59;18.70;95.40
25668;DHT22;18003;-33.830;151.202;2023-04-09T13:19:29;18.70;95.30
25668;DHT22;18003;-33.830;151.202;2023-04-09T13:21:59;18.70;95.40
25668;DHT22;18003;-33.830;151.202;2023-04-09T13:24:29;18.70;95.50
25668;DHT22;18003;-33.830;151.202;2023-04-09T13:26:59;18.60;95.30
25668;DHT22;18003;-33.830;151.202;2023-04-09T13:29:30;18.60;95.50
25668;DHT22;18003;-33.830;151.202;2023-04-09T13:32:00;18.60;95.50
25668;DHT22;18003;-33.830;151.202;2023-04-09T13:34:31;18.60;95.70
25668;DHT22;18003;-33.830;151.202;2023-04-09T13:37:01;18.60;95.80
25668;DHT22;18003;-33.830;151.202;2023-04-09T13:39:32;18.60;95.80
25668;DHT22;18003;-33.830;151.202;2023-04-09T13:42:02;18.60;95.90
25668;DHT22;18003;-33.830;151.202;2023-04-09T13:44:32;18.50;95.90
25668;DHT22;18003;-33.830;151.202;2023-04-09T13:47:02;18.50;96.00
25668;DHT22;18003;-33.830;151.202;2023-04-09T13:49:32;18.50;96.00
25668;DHT22;18003;-33.830;151.202;2023-04-09T13:52:02;18.50;96.10
25668;DHT22;18003;-33.830;151.202;2023-04-09T13:54:33;18.50;96.00
25668;DHT22;18003;-33.830;151.202;2023-04-09T13:57:04;18.40;96.00
25668;DHT22;18003;-33.830;151.202;2023-04-09T13:59:34;18.40;96.10
25668;DHT22;18003;-33.830;151.202;2023-04-09T14:02:05;18.40;96.10
25668;DHT22;18003;-33.830;151.202;2023-04-09T14:04:36;18.40;96.10
25668;DHT22;18003;-33.830;151.202;2023-04-09T14:07:06;18.40;96.10
25668;DHT22;18003;-33.830;151.202;2023-04-09T14:09:36;18.40;96.20
25668;DHT22;18003;-33.830;151.202;2023-04-09T14:12:06;18.40;96.70
25668;DHT22;18003;-33.830;151.202;2023-04-09T14:14:36;18.40;96.40
25668;DHT22;18003;-33.830;151.202;2023-04-09T14:17:06;18.40;96.40
25668;DHT22;18003;-33.830;151.202;2023-04-09T14:19:36;18.40;96.40
25668;DHT22;18003;-33.830;151.202;2023-04-09T14:22:06;18.40;96.40
25668;DHT22;18003;-33.830;151.202;2023-04-09T14:24:37;18.40;96.40
25668;DHT22;18003;-33.830;151.202;2023-04-09T14:27:07;18.30;96.40
25668;DHT22;18003;-33.830;151.202;2023-04-09T14:29:37;18.30;96.50
25668;DHT22;18003;-33.830;151.202;2023-04-09T14:32:08;18.30;96.40
25668;DHT22;18003;-33.830;151.202;2023-04-09T14:34:38;18.30;96.40
25668;DHT22;18003;-33.830;151.202;2023-04-09T14:37:08;18.30;96.30
25668;DHT22;18003;-33.830;151.202;2023-04-09T14:39:39;18.30;96.30
25668;DHT22;18003;-33.830;151.202;2023-04-09T14:42:09;18.30;96.50
25668;DHT22;18003;-33.830;151.202;2023-04-09T14:44:39;18.30;96.30
25668;DHT22;18003;-33.830;151.202;2023-04-09T14:47:09;18.30;96.30
25668;DHT22;18003;-33.830;151.202;2023-04-09T14:49:39;18.30;96.20
25668;DHT22;18003;-33.830;151.202;2023-04-09T14:52:09;18.30;96.30
25668;DHT22;18003;-33.830;151.202;2023-04-09T14:54:39;18.30;96.40
25668;DHT22;18003;-33.830;151.202;2023-04-09T14:57:10;18.30;96.30
25668;DHT22;18003;-33.830;151.202;2023-04-09T14:59:40;18.20;96.30
25668;DHT22;18003;-33.830;151.202;2023-04-09T15:02:10;18.20;96.30
25668;DHT22;18003;-33.830;151.202;2023-04-09T15:04:40;18.20;96.10
25668;DHT22;18003;-33.830;151.202;2023-04-09T15:07:10;18.20;96.10
25668;DHT22;18003;-33.830;151.202;2023-04-09T15:09:40;18.20;96.30
25668;DHT22;18003;-33.830;151.202;2023-04-09T15:12:10;18.20;96.30
25668;DHT22;18003;-33.830;151.202;2023-04-09T15:14:40;18.20;96.50
25668;DHT22;18003;-33.830;151.202;2023-04-09T15:17:10;18.20;96.50
25668;DHT22;18003;-33.830;151.202;2023-04-09T15:19:40;18.20;96.60
25668;DHT22;18003;-33.830;151.202;2023-04-09T15:22:10;18.10;96.70